Time;durP1;ratioP1;P1;durP2;ratioP2;P2;SDS_P1;SDS_P2;PMS_P1;PMS_P2;Temp;Humidity;BMP_temperature;BMP_pressure;BME280_temperature;BME280_humidity;BME280_pressure;Samples;Min_cycle;Max_cycle;Signal;HPM_P1;HPM_P2
2023/10/03 00:00:00;;;;;;;18.20;12.10;;;22.50;97.00;;;;;;4878334;29;20053;-65
2023/10/03 00:02:27;;;;;;;17.58;10.95;;;22.50;97.00;;;;;;4864838;29;20124;-65
2023/10/03 00:04:53;;;;;;;15.38;10.18;;;22.60;97.10;;;;;;4896409;29;20060;-65
2023/10/03 00:07:19;;;;;;;16.60;11.60;;;22.60;97.10;;;;;;4897206;29;20502;-66
2023/10/03 00:09:46;;;;;;;20.33;11.77;;;22.50;97.00;;;;;;4881501;29;20053;-65
2023/10/03 00:12:12;;;;;;;17.60;11.65;;;22.70;97.10;;;;;;4863706;29;20085;-65
2023/10/03 00:14:38;;;;;;;16.60;11.65;;;22.60;97.00;;;;;;4864309;29;20096;-66
2023/10/03 00:17:03;;;;;;;18.52;11.93;;;22.50;98.20;;;;;;4882791;29;20105;-65
2023/10/03 00:19:30;;;;;;;16.38;11.40;;;22.50;97.00;;;;;;4900864;29;20414;-65
2023/10/03 00:21:55;;;;;;;18.67;11.95;;;22.60;97.10;;;;;;4899841;29;20403;-65
2023/10/03 00:24:21;;;;;;;16.30;11.25;;;22.40;97.00;;;;;;4900888;29;20049;-65
2023/10/03 00:26:47;;;;;;;17.13;12.00;;;22.40;96.80;;;;;;4880953;29;20170;-65
2023/10/03 00:29:23;;;;;;;17.60;12.15;;;22.70;97.10;;;;;;4875600;29;20059;-65
2023/10/03 00:31:50;;;;;;;15.13;10.48;;;22.60;97.10;;;;;;4874059;29;20156;-65
2023/10/03 00:34:15;;;;;;;15.93;10.95;;;22.50;97.10;;;;;;4881981;29;20072;-65
2023/10/03 00:36:41;;;;;;;18.27;11.40;;;22.50;97.20;;;;;;4886142;29;20036;-65
2023/10/03 00:39:07;;;;;;;18.95;11.95;;;22.40;98.50;;;;;;4898909;29;20053;-65
2023/10/03 00:41:34;;;;;;;18.98;11.70;;;22.50;98.40;;;;;;4882192;29;20056;-65
2023/10/03 00:44:04;;;;;;;18.67;11.90;;;22.50;97.10;;;;;;4876482;29;20049;-65
2023/10/03 00:46:31;;;;;;;17.67;11.55;;;22.40;96.60;;;;;;4831763;29;20408;-65
2023/10/03 00:48:57;;;;;;;18.63;12.00;;;22.60;97.10;;;;;;4838917;29;20053;-65
2023/10/03 00:51:23;;;;;;;18.67;11.32;;;22.70;97.00;;;;;;4865137;29;20129;-65
2023/10/03 00:53:53;;;;;;;17.70;11.27;;;22.50;97.10;;;;;;4864815;29;20045;-66
2023/10/03 00:56:19;;;;;;;17.80;11.80;;;22.50;96.90;;;;;;4873219;29;20423;-66
2023/10/03 00:58:44;;;;;;;21.30;13.00;;;22.50;98.30;;;;;;4879632;29;20067;-65
2023/10/03 01:01:11;;;;;;;19.60;12.05;;;22.70;97.20;;;;;;4855376;29;20114;-65
2023/10/03 01:03:38;;;;;;;19.63;13.10;;;;;;;;;;4849946;29;20064;-65
2023/10/03 01:06:09;;;;;;;17.95;11.80;;;22.60;96.10;;;;;;4862168;29;20045;-65
2023/10/03 01:08:39;;;;;;;20.58;12.82;;;22.70;98.40;;;;;;4861843;29;20085;-65
2023/10/03 01:11:15;;;;;;;20.50;11.88;;;22.40;97.10;;;;;;4893581;29;20057;-65
2023/10/03 01:13:47;;;;;;;18.35;11.95;;;22.30;97.00;;;;;;4865066;29;20136;-65
2023/10/03 01:16:13;;;;;;;20.57;13.27;;;24.70;97.60;;;;;;4877607;29;20089;-65
2023/10/03 01:18:41;;;;;;;17.60;11.52;;;22.60;98.40;;;;;;4847682;29;20698;-65
2023/10/03 01:21:10;;;;;;;18.55;12.88;;;22.40;98.20;;;;;;4874875;29;20111;-65
2023/10/03 01:23:39;;;;;;;20.17;13.23;;;22.40;97.30;;;;;;4879500;29;20165;-65
2023/10/03 01:26:05;;;;;;;16.77;10.80;;;22.40;96.90;;;;;;4870610;29;20061;-66
2023/10/03 01:28:31;;;;;;;18.60;12.30;;;22.30;98.20;;;;;;4860541;29;20053;-65
2023/10/03 01:30:57;;;;;;;15.52;10.10;;;22.50;96.90;;;;;;4862056;29;20523;-66
2023/10/03 01:33:26;;;;;;;15.88;10.43;;;22.30;96.90;;;;;;4865496;29;20057;-65
2023/10/03 01:35:55;;;;;;;18.58;11.23;;;22.50;98.10;;;;;;4858881;29;20529;-65
2023/10/03 01:38:26;;;;;;;15.02;10.18;;;22.50;97.10;;;;;;4879386;29;20069;-66
2023/10/03 01:40:52;;;;;;;15.05;9.90;;;22.30;97.00;;;;;;4864144;29;20517;-65
2023/10/03 01:43:18;;;;;;;16.40;10.38;;;22.50;97.00;;;;;;4875548;29;20137;-65
2023/10/03 01:45:44;;;;;;;16.42;10.73;;;22.50;97.00;;;;;;4878310;29;20053;-65
2023/10/03 01:48:12;;;;;;;18.63;10.45;;;22.20;98.20;;;;;;4846302;29;20072;-65
2023/10/03 01:50:38;;;;;;;19.23;11.40;;;22.40;96.90;;;;;;4859561;29;20061;-66
2023/10/03 01:53:04;;;;;;;17.80;10.57;;;22.50;96.90;;;;;;4857534;29;20538;-65
2023/10/03 01:55:30;;;;;;;17.77;10.82;;;22.30;96.70;;;;;;4872332;29;20193;-65
2023/10/03 01:57:55;;;;;;;16.38;10.98;;;22.50;96.70;;;;;;4880282;29;20396;-65
2023/10/03 02:00:25;;;;;;;17.25;10.70;;;22.60;96.80;;;;;;4880758;29;20052;-66
2023/10/03 02:02:56;;;;;;;16.33;10.50;;;22.60;96.40;;;;;;4868333;29;20068;-66
2023/10/03 02:05:23;;;;;;;17.75;11.38;;;22.50;96.90;;;;;;4857094;29;20052;-67
2023/10/03 02:07:55;;;;;;;16.00;11.05;;;22.30;96.80;;;;;;4863000;29;20072;-65
2023/10/03 02:10:21;;;;;;;17.20;10.75;;;22.60;96.90;;;;;;4863242;29;20108;-66
2023/10/03 02:12:50;;;;;;;17.42;11.13;;;22.40;96.70;;;;;;4849982;29;20052;-65
2023/10/03 02:15:26;;;;;;;18.83;10.85;;;22.40;96.30;;;;;;4865239;29;20048;-66
2023/10/03 02:17:53;;;;;;;17.45;11.32;;;22.30;96.90;;;;;;4868221;29;20144;-65
2023/10/03 02:20:20;;;;;;;18.70;11.88;;;22.30;96.80;;;;;;4898422;29;20044;-66
2023/10/03 02:22:54;;;;;;;18.77;11.10;;;22.80;97.10;;;;;;4879011;29;20056;-66
2023/10/03 02:25:27;;;;;;;18.55;11.30;;;22.40;96.80;;;;;;4878118;29;20088;-66
2023/10/03 02:27:54;;;;;;;17.50;10.82;;;22.50;96.10;;;;;;4844237;29;20057;-67
2023/10/03 02:30:27;;;;;;;17.98;10.90;;;22.50;96.80;;;;;;4841474;29;20087;-66
2023/10/03 02:32:53;;;;;;;21.40;12.02;;;22.60;96.70;;;;;;4866745;29;20055;-67
2023/10/03 02:35:25;;;;;;;19.02;11.75;;;22.50;96.60;;;;;;4875804;29;20513;-67
2023/10/03 02:37:52;;;;;;;21.33;13.15;;;22.50;96.00;;;;;;4898212;29;20083;-66
2023/10/03 02:40:26;;;;;;;19.77;11.40;;;22.30;96.60;;;;;;4898154;29;20537;-66
2023/10/03 02:42:53;;;;;;;17.50;11.23;;;22.40;97.70;;;;;;4880866;29;20053;-66
2023/10/03 02:45:23;;;;;;;18.83;11.40;;;22.50;96.60;;;;;;4889720;29;20083;-65
2023/10/03 02:47:51;;;;;;;19.27;11.80;;;22.40;95.90;;;;;;4865854;29;20049;-66
2023/10/03 02:50:18;;;;;;;20.25;11.52;;;22.50;96.50;;;;;;4868141;29;20063;-66
2023/10/03 02:52:45;;;;;;;17.90;11.50;;;22.30;96.40;;;;;;4876121;29;20059;-67
2023/10/03 02:55:15;;;;;;;17.77;12.10;;;22.30;96.40;;;;;;4878510;29;20113;-65
2023/10/03 02:57:41;;;;;;;18.77;11.93;;;22.10;95.90;;;;;;4848014;29;20140;-65
2023/10/03 03:00:13;;;;;;;22.55;13.02;;;22.10;96.30;;;;;;4865559;29;20475;-66
2023/10/03 03:02:50;;;;;;;21.25;12.55;;;22.30;96.30;;;;;;4870480;29;20120;-66
2023/10/03 03:05:16;;;;;;;19.50;12.35;;;22.40;96.10;;;;;;4881534;29;20049;-66
2023/10/03 03:07:48;;;;;;;19.38;12.35;;;22.30;96.40;;;;;;4878741;29;20065;-66
2023/10/03 03:10:16;;;;;;;20.40;12.85;;;22.30;96.20;;;;;;4872481;29;20494;-66
2023/10/03 03:12:43;;;;;;;20.60;13.10;;;22.20;96.40;;;;;;4892077;29;20396;-66
2023/10/03 03:15:17;;;;;;;18.55;12.25;;;22.20;96.30;;;;;;4884814;29;20410;-67
2023/10/03 03:17:43;;;;;;;20.73;13.20;;;22.30;96.40;;;;;;4878479;29;20049;-66
2023/10/03 03:20:18;;;;;;;22.02;13.13;;;22.40;96.30;;;;;;4861239;29;20067;-66
2023/10/03 03:22:47;;;;;;;21.25;12.77;;;22.20;96.00;;;;;;4877000;29;20089;-66
2023/10/03 03:25:35;;;;;;;21.38;13.13;;;22.00;97.50;;;;;;4861353;29;20148;-66
2023/10/03 03:28:01;;;;;;;22.55;13.70;;;22.30;96.20;;;;;;4861574;29;20078;-66
2023/10/03 03:32:53;;;;;;;21.40;12.85;;;22.20;96.10;;;;;;4875841;29;20057;-66
2023/10/03 03:35:22;;;;;;;25.42;14.68;;;21.90;96.10;;;;;;4857262;29;20048;-67
2023/10/03 03:37:48;;;;;;;19.88;13.20;;;22.00;96.10;;;;;;4895275;29;20097;-66
2023/10/03 03:40:25;;;;;;;22.25;13.70;;;22.00;97.50;;;;;;4878749;29;20121;-66
2023/10/03 03:42:52;;;;;;;25.02;14.68;;;22.00;97.60;;;;;;4878569;29;20060;-66
2023/10/03 03:45:21;;;;;;;22.67;13.65;;;22.00;96.10;;;;;;4865873;29;20124;-67
2023/10/03 03:47:50;;;;;;;23.08;14.00;;;22.20;96.20;;;;;;4870279;29;20065;-65
2023/10/03 03:50:20;;;;;;;22.35;14.02;;;22.20;96.10;;;;;;4855426;29;20056;-65
2023/10/03 03:52:46;;;;;;;23.10;14.15;;;22.00;96.20;;;;;;4859925;29;20061;-66
2023/10/03 03:55:12;;;;;;;26.00;15.65;;;22.20;96.20;;;;;;4848583;29;20057;-66
2023/10/03 03:57:38;;;;;;;22.02;14.50;;;22.00;96.30;;;;;;4897235;29;20067;-65
2023/10/03 04:00:20;;;;;;;23.67;14.07;;;22.00;96.10;;;;;;4881465;29;20136;-65
2023/10/03 04:02:49;;;;;;;23.67;14.80;;;22.20;96.00;;;;;;4878772;29;20133;-66
2023/10/03 04:05:17;;;;;;;23.52;14.43;;;22.10;97.20;;;;;;4862800;29;20045;-66
2023/10/03 04:07:44;;;;;;;23.73;14.23;;;22.30;96.40;;;;;;4882496;29;20088;-67
2023/10/03 04:10:12;;;;;;;25.27;14.63;;;21.90;96.00;;;;;;4878019;29;20398;-65
2023/10/03 04:12:41;;;;;;;25.45;14.93;;;22.30;96.10;;;;;;4861638;29;20064;-66
2023/10/03 04:15:20;;;;;;;24.33;15.50;;;22.00;96.00;;;;;;4863077;29;20144;-65
2023/10/03 04:17:46;;;;;;;26.63;15.30;;;22.00;96.10;;;;;;4868897;29;20052;-67
2023/10/03 04:22:51;;;;;;;26.55;15.38;;;21.90;96.00;;;;;;4863631;29;20388;-66
2023/10/03 04:25:20;;;;;;;23.33;15.05;;;22.10;97.30;;;;;;4856063;29;20372;-66
2023/10/03 04:27:51;;;;;;;24.15;14.93;;;22.30;96.40;;;;;;4868609;29;20064;-68
2023/10/03 04:30:23;;;;;;;24.75;15.30;;;22.10;97.00;;;;;;4892138;29;20662;-66
2023/10/03 04:32:49;;;;;;;24.40;14.93;;;22.10;96.00;;;;;;4897195;29;20527;-67
2023/10/03 04:35:17;;;;;;;25.90;15.80;;;21.90;95.80;;;;;;4880346;29;20179;-66
2023/10/03 04:37:44;;;;;;;26.30;15.38;;;22.20;97.50;;;;;;4872588;29;20415;-67
2023/10/03 04:40:15;;;;;;;22.90;14.57;;;22.10;96.00;;;;;;4821239;29;20492;-67
2023/10/03 04:42:45;;;;;;;24.00;15.27;;;22.20;96.10;;;;;;4856603;29;20076;-67
2023/10/03 04:45:14;;;;;;;25.42;14.35;;;22.00;96.30;;;;;;4859494;29;20149;-67
2023/10/03 04:47:45;;;;;;;23.08;14.18;;;22.00;96.00;;;;;;4860399;29;20052;-67
2023/10/03 04:50:18;;;;;;;23.30;14.55;;;22.10;97.20;;;;;;4876833;29;20053;-66
2023/10/03 04:52:50;;;;;;;24.17;15.07;;;22.00;96.10;;;;;;4889239;29;20160;-67
2023/10/03 04:55:19;;;;;;;22.83;14.70;;;21.90;95.40;;;;;;4898715;29;20127;-66
2023/10/03 04:57:50;;;;;;;25.63;15.13;;;22.10;96.10;;;;;;4892227;29;20388;-66
2023/10/03 05:00:16;;;;;;;24.67;15.00;;;22.10;96.90;;;;;;4886375;29;20115;-66
2023/10/03 05:02:49;;;;;;;24.50;15.30;;;22.10;97.10;;;;;;4861041;29;20095;-66
2023/10/03 05:05:20;;;;;;;24.73;14.82;;;22.20;96.10;;;;;;4872425;29;20550;-66
2023/10/03 05:07:53;;;;;;;25.60;14.57;;;22.30;96.10;;;;;;4877762;29;20057;-67
2023/10/03 05:10:21;;;;;;;23.42;14.57;;;22.10;97.40;;;;;;4864656;29;20053;-67
2023/10/03 05:12:47;;;;;;;24.35;15.57;;;22.20;96.00;;;;;;4880169;29;20048;-67
2023/10/03 05:15:14;;;;;;;22.90;14.73;;;22.10;95.90;;;;;;4875913;29;20060;-67
2023/10/03 05:17:43;;;;;;;24.30;14.30;;;22.10;96.00;;;;;;4873143;29;20464;-66
2023/10/03 05:20:11;;;;;;;24.63;13.70;;;22.10;97.30;;;;;;4864556;29;20503;-66
2023/10/03 05:22:36;;;;;;;24.48;13.88;;;22.10;95.80;;;;;;4847600;29;20053;-66
2023/10/03 05:25:03;;;;;;;22.10;14.15;;;21.90;95.90;;;;;;4865434;29;20132;-66
2023/10/03 05:27:29;;;;;;;22.58;14.02;;;22.10;95.90;;;;;;4863417;29;20056;-66
2023/10/03 05:30:01;;;;;;;24.08;14.52;;;22.20;96.00;;;;;;4864390;29;20132;-67
2023/10/03 05:32:28;;;;;;;21.98;13.82;;;21.90;95.80;;;;;;4860937;29;20396;-66
2023/10/03 05:34:55;;;;;;;24.15;13.68;;;22.20;96.00;;;;;;4880088;29;20049;-66
2023/10/03 05:37:21;;;;;;;22.80;13.38;;;22.50;97.60;;;;;;4880675;29;20117;-66
2023/10/03 05:39:47;;;;;;;22.50;13.73;;;22.10;95.90;;;;;;4863652;29;20053;-66
2023/10/03 05:42:15;;;;;;;22.67;13.63;;;22.00;96.00;;;;;;4880314;29;20041;-66
2023/10/03 05:44:43;;;;;;;20.50;12.65;;;22.20;96.00;;;;;;4882775;29;20077;-67
2023/10/03 05:47:09;;;;;;;24.08;13.68;;;22.10;96.00;;;;;;4880888;29;20090;-67
2023/10/03 05:49:36;;;;;;;21.73;13.32;;;22.10;97.50;;;;;;4872441;29;20061;-66
2023/10/03 05:52:02;;;;;;;22.48;13.15;;;22.30;96.10;;;;;;4874789;29;20052;-65
2023/10/03 05:54:30;;;;;;;21.63;12.88;;;22.30;96.10;;;;;;4880361;29;20041;-65
2023/10/03 05:56:57;;;;;;;21.98;13.32;;;22.30;96.20;;;;;;4866483;29;20625;-66
2023/10/03 05:59:23;;;;;;;21.50;12.63;;;21.90;96.00;;;;;;4897560;29;20119;-67
2023/10/03 06:01:50;;;;;;;22.75;13.23;;;22.10;96.00;;;;;;4871067;29;20064;-67
2023/10/03 06:04:16;;;;;;;20.80;12.63;;;22.20;96.10;;;;;;4899149;29;20052;-66
2023/10/03 06:06:43;;;;;;;21.05;12.65;;;22.30;96.20;;;;;;4877102;29;20053;-66
2023/10/03 06:09:12;;;;;;;20.80;13.27;;;22.00;96.10;;;;;;4873646;29;20127;-66
2023/10/03 06:11:38;;;;;;;19.45;12.77;;;22.10;97.50;;;;;;4879320;29;20060;-67
2023/10/03 06:14:04;;;;;;;22.23;12.77;;;22.20;96.40;;;;;;4883683;29;20048;-67
2023/10/03 06:16:30;;;;;;;21.67;12.25;;;22.30;96.20;;;;;;4881397;29;20056;-66
2023/10/03 06:18:57;;;;;;;21.02;12.88;;;22.00;96.10;;;;;;4863280;29;20408;-66
2023/10/03 06:21:23;;;;;;;22.83;12.95;;;22.30;96.20;;;;;;4878231;29;20059;-66
2023/10/03 06:23:50;;;;;;;21.52;12.68;;;22.40;96.30;;;;;;4863060;29;20502;-66
2023/10/03 06:26:18;;;;;;;19.65;11.93;;;22.10;96.20;;;;;;4883862;29;20040;-67
2023/10/03 06:28:50;;;;;;;20.65;11.65;;;22.40;96.30;;;;;;4898350;29;20104;-67
2023/10/03 06:31:16;;;;;;;20.90;12.43;;;22.20;96.00;;;;;;4891729;29;20048;-66
2023/10/03 06:33:43;;;;;;;17.75;11.38;;;22.40;96.30;;;;;;4881633;29;20048;-66
2023/10/03 06:36:09;;;;;;;19.75;11.68;;;22.20;97.30;;;;;;4877987;29;20060;-67
2023/10/03 06:38:36;;;;;;;21.95;12.43;;;22.20;97.60;;;;;;4881137;29;20599;-66
2023/10/03 06:41:07;;;;;;;18.98;11.05;;;22.40;96.30;;;;;;4858467;29;20124;-66
2023/10/03 06:43:33;;;;;;;22.63;11.68;;;22.20;96.30;;;;;;4870391;29;20053;-66
2023/10/03 06:45:59;;;;;;;20.42;11.00;;;22.30;96.30;;;;;;4861113;29;20053;-66
2023/10/03 06:48:28;;;;;;;20.23;11.50;;;22.30;96.30;;;;;;4874535;29;20084;-67
2023/10/03 06:50:54;;;;;;;18.25;11.43;;;22.30;95.70;;;;;;4860978;29;20083;-67
2023/10/03 06:53:22;;;;;;;18.95;11.60;;;22.00;96.20;;;;;;4861096;29;20455;-66
2023/10/03 06:55:51;;;;;;;17.77;10.52;;;22.20;96.30;;;;;;4878988;29;20068;-66
2023/10/03 06:58:17;;;;;;;18.90;11.07;;;22.50;96.40;;;;;;4890232;29;20078;-66
2023/10/03 07:00:43;;;;;;;18.50;10.55;;;22.20;97.70;;;;;;4895255;29;20506;-66
2023/10/03 07:03:09;;;;;;;20.20;11.43;;;22.40;96.30;;;;;;4881300;29;20059;-66
2023/10/03 07:05:34;;;;;;;17.35;10.93;;;22.30;97.70;;;;;;4863334;29;20056;-66
2023/10/03 07:08:00;;;;;;;15.57;9.38;;;22.30;96.30;;;;;;4866826;29;20479;-66
2023/10/03 07:10:26;;;;;;;18.38;10.23;;;22.20;96.30;;;;;;4865743;29;20044;-66
2023/10/03 07:12:52;;;;;;;20.30;10.70;;;22.40;96.40;;;;;;4897644;29;20052;-65
2023/10/03 07:15:18;;;;;;;17.45;9.93;;;22.20;97.60;;;;;;4865910;29;20124;-66
2023/10/03 07:17:44;;;;;;;15.57;9.23;;;22.40;96.50;;;;;;4871998;29;20069;-65
2023/10/03 07:20:12;;;;;;;15.82;9.20;;;22.30;96.70;;;;;;4897767;29;20052;-66
2023/10/03 07:22:38;;;;;;;17.38;8.82;;;22.30;96.30;;;;;;4897136;29;20051;-66
2023/10/03 07:25:08;;;;;;;15.07;8.73;;;22.60;96.50;;;;;;4876878;29;20045;-66
2023/10/03 07:27:34;;;;;;;15.85;8.75;;;22.30;97.70;;;;;;4877088;29;20049;-66
2023/10/03 07:30:02;;;;;;;15.52;8.23;;;22.20;97.80;;;;;;4862403;29;20112;-66
2023/10/03 07:32:32;;;;;;;14.40;8.32;;;22.30;96.50;;;;;;4857844;29;20111;-66
2023/10/03 07:34:59;;;;;;;15.32;8.10;;;22.20;96.60;;;;;;4872104;29;20037;-67
2023/10/03 07:37:25;;;;;;;18.55;8.32;;;22.30;98.00;;;;;;4873295;29;20117;-66
2023/10/03 07:39:51;;;;;;;13.65;7.63;;;22.20;96.50;;;;;;4872369;29;20044;-66
2023/10/03 07:42:17;;;;;;;18.65;7.22;;;22.30;96.60;;;;;;4871655;29;20045;-66
2023/10/03 07:44:44;;;;;;;19.00;7.88;;;23.90;97.10;;;;;;4869634;29;20048;-65
2023/10/03 07:47:12;;;;;;;15.20;7.32;;;22.20;96.70;;;;;;4874494;29;20411;-66
2023/10/03 07:49:41;;;;;;;14.07;7.25;;;22.10;96.80;;;;;;4865261;29;20045;-71
2023/10/03 07:52:07;;;;;;;17.13;7.80;;;22.10;96.70;;;;;;4878723;29;20113;-65
2023/10/03 07:54:36;;;;;;;12.90;6.65;;;22.20;96.80;;;;;;4878569;29;20053;-66
2023/10/03 07:57:08;;;;;;;16.00;7.00;;;22.30;96.90;;;;;;4877654;29;21051;-64
2023/10/03 07:59:33;;;;;;;15.77;7.20;;;22.10;96.40;;;;;;4874617;29;20141;-68
2023/10/03 08:02:04;;;;;;;12.85;7.05;;;22.10;97.00;;;;;;4876068;29;20045;-65
2023/10/03 08:04:31;;;;;;;16.40;7.03;;;22.00;97.00;;;;;;4861878;29;20123;-65
2023/10/03 08:06:58;;;;;;;15.90;7.35;;;22.10;97.20;;;;;;4876585;29;20057;-66
2023/10/03 08:09:25;;;;;;;16.17;7.15;;;22.00;96.90;;;;;;4886193;29;20403;-66
2023/10/03 08:11:52;;;;;;;12.80;6.45;;;21.90;97.10;;;;;;4866019;29;20496;-66
2023/10/03 08:14:18;;;;;;;18.27;7.03;;;22.20;97.20;;;;;;4878946;29;20053;-65
2023/10/03 08:16:45;;;;;;;14.90;6.45;;;22.20;97.20;;;;;;4863072;29;20484;-65
2023/10/03 08:19:21;;;;;;;15.23;6.10;;;22.10;97.30;;;;;;4891580;29;20060;-65
2023/10/03 08:21:48;;;;;;;14.98;6.50;;;22.20;98.70;;;;;;4874805;29;20136;-65
2023/10/03 08:24:14;;;;;;;15.38;6.40;;;22.10;97.30;;;;;;4850203;29;20089;-65
2023/10/03 08:26:46;;;;;;;14.65;6.53;;;22.20;98.70;;;;;;4878962;29;20048;-65
2023/10/03 08:29:21;;;;;;;13.38;6.15;;;22.10;96.90;;;;;;4898581;29;20056;-66
2023/10/03 08:31:59;;;;;;;12.98;6.63;;;22.00;97.30;;;;;;4887931;29;20060;-65
2023/10/03 08:34:25;;;;;;;13.10;6.38;;;22.30;97.40;;;;;;4860723;29;20045;-66
2023/10/03 08:36:54;;;;;;;11.32;5.97;;;22.20;97.20;;;;;;4877356;29;20463;-65
2023/10/03 08:39:22;;;;;;;14.32;6.60;;;22.20;96.80;;;;;;4861584;29;20398;-66
2023/10/03 08:41:53;;;;;;;14.93;6.10;;;22.20;98.70;;;;;;4864646;29;20061;-66
2023/10/03 08:44:22;;;;;;;13.52;5.78;;;22.40;97.30;;;;;;4865691;29;20113;-66
2023/10/03 08:46:57;;;;;;;14.85;6.38;;;21.90;97.10;;;;;;4868541;29;20049;-66
2023/10/03 08:49:38;;;;;;;12.40;5.85;;;22.40;98.60;;;;;;4898643;29;20120;-65
2023/10/03 08:52:09;;;;;;;11.38;5.38;;;22.40;97.20;;;;;;4864568;29;20490;-66
2023/10/03 08:54:38;;;;;;;12.18;6.10;;;22.40;97.10;;;;;;4877716;29;20424;-66
2023/10/03 08:57:04;;;;;;;11.82;5.47;;;22.20;96.40;;;;;;4862043;29;20061;-66
2023/10/03 08:59:31;;;;;;;10.27;5.53;;;22.40;96.80;;;;;;4861459;29;20118;-66
2023/10/03 09:02:01;;;;;;;11.52;5.65;;;22.30;96.90;;;;;;4862417;29;20404;-65
2023/10/03 09:04:37;;;;;;;10.70;5.35;;;22.50;97.00;;;;;;4873350;29;20042;-66
2023/10/03 09:07:08;;;;;;;11.15;5.05;;;22.30;96.80;;;;;;4861290;29;20057;-66
2023/10/03 09:09:41;;;;;;;9.45;5.00;;;22.50;98.10;;;;;;4861553;29;20054;-65
2023/10/03 09:12:12;;;;;;;9.95;4.97;;;22.40;96.50;;;;;;4859662;29;20084;-66
2023/10/03 09:14:38;;;;;;;9.43;4.68;;;22.40;96.90;;;;;;4843458;29;20175;-66
2023/10/03 09:17:05;;;;;;;8.10;4.60;;;22.30;98.10;;;;;;4860686;29;20512;-66
2023/10/03 09:20:04;;;;;;;9.27;4.78;;;22.60;96.80;;;;;;4873648;29;20181;-66
2023/10/03 09:22:32;;;;;;;11.05;5.00;;;22.50;98.20;;;;;;4858858;29;20060;-65
2023/10/03 09:24:58;;;;;;;10.35;4.80;;;22.40;96.60;;;;;;4879521;29;20140;-65
2023/10/03 09:27:31;;;;;;;13.65;4.80;;;22.60;98.00;;;;;;4861673;29;20179;-66
2023/10/03 09:29:58;;;;;;;;;;;22.40;96.30;;;;;;4859433;29;20389;-66
2023/10/03 09:32:24;;;;;;;14.88;5.13;;;22.40;96.80;;;;;;4860201;29;19983;-66
2023/10/03 09:34:56;;;;;;;19.02;5.45;;;22.70;96.70;;;;;;4881083;29;20041;-65
2023/10/03 09:37:28;;;;;;;14.55;4.82;;;22.70;96.40;;;;;;4863990;29;20085;-66
2023/10/03 09:39:59;;;;;;;13.57;4.93;;;22.60;96.70;;;;;;4861803;29;20449;-66
2023/10/03 09:42:25;;;;;;;17.13;5.07;;;22.50;96.50;;;;;;4850504;29;20453;-65
2023/10/03 09:44:51;;;;;;;16.50;4.78;;;22.80;96.30;;;;;;4880805;29;20053;-66
2023/10/03 09:47:18;;;;;;;15.82;5.25;;;22.80;96.50;;;;;;4862938;29;20058;-66
2023/10/03 09:49:45;;;;;;;14.55;5.00;;;22.80;96.40;;;;;;4842201;29;20578;-66
2023/10/03 09:52:27;;;;;;;15.23;4.70;;;22.90;96.40;;;;;;4857032;29;20046;-65
2023/10/03 09:54:54;;;;;;;12.32;4.15;;;22.80;96.30;;;;;;4859684;29;20085;-65
2023/10/03 09:57:21;;;;;;;8.95;3.65;;;22.70;96.20;;;;;;4861487;29;20058;-64
2023/10/03 09:59:48;;;;;;;10.02;3.38;;;22.90;96.10;;;;;;4873667;29;20124;-66
2023/10/03 10:02:14;;;;;;;11.50;3.63;;;22.80;96.00;;;;;;4893518;29;20377;-65
2023/10/03 10:04:45;;;;;;;7.80;2.90;;;22.90;96.00;;;;;;4863443;29;20048;-65
2023/10/03 10:07:39;;;;;;;9.10;2.97;;;23.10;96.00;;;;;;4863506;29;20052;-65
2023/10/03 10:10:14;;;;;;;7.18;3.10;;;23.00;95.70;;;;;;4866281;29;20088;-65
2023/10/03 10:13:13;;;;;;;9.27;2.88;;;22.90;96.60;;;;;;4847969;29;20053;-64
2023/10/03 10:16:00;;;;;;;7.43;2.28;;;22.90;94.90;;;;;;4873323;29;20057;-65
2023/10/03 10:18:45;;;;;;;7.05;2.10;;;22.80;94.80;;;;;;4878376;29;20132;-65
2023/10/03 10:21:20;;;;;;;6.85;2.40;;;22.90;95.20;;;;;;4862721;29;20109;-65
2023/10/03 10:24:15;;;;;;;7.40;2.10;;;22.80;95.20;;;;;;4878779;29;20555;-64
2023/10/03 10:26:42;;;;;;;8.00;2.15;;;22.70;94.60;;;;;;4887335;29;20048;-65
2023/10/03 10:29:08;;;;;;;9.18;2.20;;;23.10;95.20;;;;;;4896060;29;20047;-65
2023/10/03 10:31:42;;;;;;;5.80;1.90;;;22.90;96.00;;;;;;4894865;29;20108;-65
2023/10/03 10:34:23;;;;;;;4.78;1.60;;;22.90;95.00;;;;;;4862798;29;20072;-65
2023/10/03 10:37:15;;;;;;;5.18;1.83;;;23.00;94.60;;;;;;4865225;29;20525;-65
2023/10/03 10:39:56;;;;;;;4.97;1.65;;;22.90;95.10;;;;;;4856407;29;20053;-65
2023/10/03 10:42:25;;;;;;;6.78;1.92;;;23.00;95.00;;;;;;4862979;29;20056;-64
2023/10/03 10:45:03;;;;;;;5.53;1.60;;;23.10;94.90;;;;;;4878345;29;20081;-65
2023/10/03 10:47:31;;;;;;;6.18;2.08;;;23.10;94.90;;;;;;4863009;29;20052;-65
2023/10/03 10:49:58;;;;;;;5.85;1.60;;;23.10;94.90;;;;;;4878455;29;20096;-65
2023/10/03 10:52:24;;;;;;;4.47;1.55;;;23.00;94.80;;;;;;4847480;29;20053;-65
2023/10/03 10:54:51;;;;;;;5.65;1.80;;;22.90;94.70;;;;;;4876265;29;20498;-64
2023/10/03 10:57:18;;;;;;;4.55;1.55;;;22.90;94.80;;;;;;4870415;29;20138;-65
2023/10/03 10:59:45;;;;;;;11.13;1.80;;;22.70;94.90;;;;;;4874064;29;20096;-65
2023/10/03 11:02:16;;;;;;;5.88;1.77;;;22.80;94.80;;;;;;4885400;29;20074;-65
2023/10/03 11:04:43;;;;;;;4.82;1.40;;;22.90;95.10;;;;;;4880523;29;20108;-65
2023/10/03 11:07:09;;;;;;;5.95;1.60;;;22.70;94.80;;;;;;4896207;29;20060;-65
2023/10/03 11:09:37;;;;;;;4.05;1.40;;;22.80;94.90;;;;;;4897984;29;20047;-66
2023/10/03 11:12:06;;;;;;;4.43;1.40;;;22.80;95.00;;;;;;4875664;29;20057;-65
2023/10/03 11:14:33;;;;;;;4.20;1.27;;;22.70;94.90;;;;;;4860899;29;20125;-65
2023/10/03 11:17:01;;;;;;;4.20;1.42;;;22.80;94.90;;;;;;4884688;29;20124;-64
2023/10/03 11:19:30;;;;;;;3.63;1.30;;;22.70;95.00;;;;;;4880753;29;20052;-65
2023/10/03 11:21:56;;;;;;;4.65;1.20;;;22.80;94.80;;;;;;4878018;29;20064;-65
2023/10/03 11:24:22;;;;;;;5.32;1.38;;;23.00;94.70;;;;;;4878781;29;20049;-67
2023/10/03 11:26:57;;;;;;;3.25;1.30;;;22.90;94.90;;;;;;4873875;29;20124;-66
2023/10/03 11:29:48;;;;;;;3.65;1.50;;;22.90;95.00;;;;;;4856206;29;20396;-68
2023/10/03 11:32:30;;;;;;;4.90;1.60;;;22.90;95.20;;;;;;4877912;29;20407;-68
2023/10/03 11:34:57;;;;;;;5.03;1.48;;;23.00;95.00;;;;;;4878717;29;20499;-69
2023/10/03 11:37:48;;;;;;;4.28;1.40;;;22.80;95.70;;;;;;4876098;29;20053;-66
2023/10/03 11:40:20;;;;;;;5.85;1.52;;;23.00;94.10;;;;;;4888642;29;20505;-69
2023/10/03 11:42:50;;;;;;;4.78;1.67;;;22.90;93.90;;;;;;4880439;29;20453;-67
2023/10/03 11:45:18;;;;;;;4.10;1.77;;;22.90;94.40;;;;;;4878785;29;20040;-71
2023/10/03 11:48:00;;;;;;;4.95;1.80;;;23.00;94.20;;;;;;4877080;29;20085;-66
2023/10/03 11:50:26;;;;;;;5.32;1.80;;;23.10;93.60;;;;;;4878130;29;20045;-67
2023/10/03 11:52:56;;;;;;;8.68;2.63;;;23.10;93.90;;;;;;4878782;29;20060;-67
2023/10/03 11:55:25;;;;;;;7.18;2.10;;;23.00;94.00;;;;;;4877511;29;20140;-67
2023/10/03 11:57:52;;;;;;;8.55;2.22;;;23.00;93.20;;;;;;4876198;29;20064;-69
2023/10/03 12:00:19;;;;;;;12.52;2.72;;;23.10;93.60;;;;;;4893944;29;20121;-67
2023/10/03 12:02:49;;;;;;;10.07;2.58;;;23.20;93.50;;;;;;4897329;29;20051;-67
2023/10/03 12:05:16;;;;;;;6.72;2.47;;;23.20;93.00;;;;;;4879738;29;20056;-67
2023/10/03 12:07:46;;;;;;;13.32;3.38;;;23.00;93.20;;;;;;4882552;29;20053;-68
2023/10/03 12:10:15;;;;;;;7.18;2.92;;;23.20;94.20;;;;;;4893811;29;20131;-69
2023/10/03 12:12:41;;;;;;;9.88;3.30;;;23.10;93.10;;;;;;4887264;29;20067;-66
2023/10/03 12:15:12;;;;;;;8.50;2.78;;;23.30;92.80;;;;;;4881718;29;20049;-68
2023/10/03 12:17:48;;;;;;;8.23;2.80;;;23.20;92.70;;;;;;4880025;29;20049;-69
2023/10/03 12:20:16;;;;;;;6.03;2.70;;;23.20;92.80;;;;;;4877123;29;20053;-67
2023/10/03 12:22:53;;;;;;;27.02;4.13;;;22.90;92.50;;;;;;4882267;29;20088;-67
2023/10/03 12:25:20;;;;;;;9.38;2.75;;;23.50;92.50;;;;;;4881558;29;20352;-68
2023/10/03 12:27:47;;;;;;;11.35;2.78;;;23.00;92.40;;;;;;4882240;29;20089;-69
2023/10/03 12:30:15;;;;;;;15.43;3.40;;;22.90;91.80;;;;;;4861121;29;20053;-71
2023/10/03 12:32:44;;;;;;;11.10;3.40;;;23.30;92.10;;;;;;4868689;29;20046;-69
2023/10/03 12:35:10;;;;;;;13.55;3.33;;;22.90;91.40;;;;;;4882101;29;20403;-69
2023/10/03 12:37:36;;;;;;;11.15;3.08;;;23.30;91.90;;;;;;4882874;29;20148;-67
2023/10/03 12:40:13;;;;;;;14.32;3.75;;;23.10;93.00;;;;;;4885786;29;20431;-69
2023/10/03 12:42:47;;;;;;;12.50;3.15;;;23.10;92.80;;;;;;4879935;29;20071;-68
2023/10/03 12:45:20;;;;;;;13.70;3.10;;;23.00;91.10;;;;;;4889512;29;20049;-67
2023/10/03 12:47:48;;;;;;;7.13;2.80;;;23.20;91.30;;;;;;4880886;29;20093;-66